createdAt,value
2023-04-20T00:00:11.613Z,9.76
2023-04-20T00:03:03.817Z,9.70
2023-04-20T00:05:33.326Z,9.70
2023-04-20T00:08:01.597Z,9.70
2023-04-20T00:10:29.424Z,9.70
2023-04-20T00:12:57.378Z,9.60
2023-04-20T00:15:25.393Z,9.56
2023-04-20T00:17:53.726Z,9.50
2023-04-20T00:20:21.624Z,9.32
2023-04-20T00:22:49.542Z,9.20
2023-04-20T00:25:17.533Z,9.18
2023-04-20T00:27:45.712Z,9.06
2023-04-20T00:30:14.081Z,9.00
2023-04-20T00:32:43.353Z,8.80
2023-04-20T00:35:12.147Z,8.70
2023-04-20T00:37:40.534Z,8.64
2023-04-20T00:40:09.701Z,8.66
2023-04-20T00:42:40.720Z,8.70
2023-04-20T00:45:09.589Z,8.70
2023-04-20T00:47:38.880Z,8.70
2023-04-20T00:50:07.362Z,8.70
2023-04-20T00:52:35.495Z,8.60
2023-04-20T00:55:03.745Z,8.60
2023-04-20T00:57:31.704Z,8.50
2023-04-20T01:00:02.378Z,8.40
2023-04-20T01:02:30.425Z,8.38
2023-04-20T01:04:58.568Z,8.30
2023-04-20T01:07:26.574Z,8.24
2023-04-20T01:09:54.433Z,8.18
2023-04-20T01:12:22.334Z,8.10
2023-04-20T01:14:50.340Z,8.00
2023-04-20T01:17:20.690Z,7.90
2023-04-20T01:19:49.411Z,7.90
2023-04-20T01:22:18.414Z,7.90
2023-04-20T01:24:46.312Z,7.80
2023-04-20T01:27:16.482Z,7.80
2023-04-20T01:29:44.530Z,7.80
2023-04-20T01:32:12.516Z,7.90
2023-04-20T01:34:40.849Z,7.90
2023-04-20T01:37:09.829Z,7.90
2023-04-20T01:39:40.853Z,8.00
2023-04-20T01:42:08.791Z,8.08
2023-04-20T01:44:37.248Z,8.10
2023-04-20T01:47:05.293Z,8.10
2023-04-20T01:49:33.878Z,8.20
2023-04-20T01:52:01.855Z,8.22
2023-04-20T01:54:29.669Z,8.30
2023-04-20T01:56:58.030Z,8.40
2023-04-20T01:59:26.800Z,8.40
2023-04-20T02:01:54.878Z,8.40
2023-04-20T02:04:22.948Z,8.50
2023-04-20T02:06:50.831Z,8.50
2023-04-20T02:09:19.008Z,8.60
2023-04-20T02:11:47.156Z,8.60
2023-04-20T02:14:15.123Z,8.60
2023-04-20T02:16:43.165Z,8.60
2023-04-20T02:19:11.159Z,8.60
2023-04-20T02:21:39.304Z,8.60
2023-04-20T02:24:07.440Z,8.70
2023-04-20T02:26:35.412Z,8.60
2023-04-20T02:29:03.397Z,8.60
2023-04-20T02:31:31.571Z,8.60
2023-04-20T02:33:59.493Z,8.60
2023-04-20T02:36:28.391Z,8.50
2023-04-20T02:38:56.450Z,8.50
2023-04-20T02:41:24.608Z,8.40
2023-04-20T02:43:52.725Z,8.40
2023-04-20T02:46:21.032Z,8.40
2023-04-20T02:48:49.248Z,8.40
2023-04-20T02:51:17.286Z,8.40
2023-04-20T02:53:46.832Z,8.40
2023-04-20T02:56:21.031Z,8.40
2023-04-20T02:58:55.154Z,8.36
2023-04-20T03:01:33.612Z,8.40
2023-04-20T03:04:21.197Z,8.30
2023-04-20T03:07:01.433Z,8.24
2023-04-20T03:09:31.520Z,8.20
2023-04-20T03:12:18.816Z,8.20
2023-04-20T03:15:06.564Z,8.20
2023-04-20T03:17:52.678Z,8.20
2023-04-20T03:20:20.829Z,8.10
2023-04-20T03:22:49.088Z,8.10
2023-04-20T03:25:17.615Z,8.04
2023-04-20T03:28:02.652Z,8.00
2023-04-20T03:30:31.012Z,7.90
2023-04-20T03:33:12.557Z,7.80
2023-04-20T03:35:41.115Z,7.80
2023-04-20T03:38:09.139Z,7.60
2023-04-20T03:40:37.881Z,7.50
2023-04-20T03:43:07.494Z,7.50
2023-04-20T03:45:35.428Z,7.58
2023-04-20T03:48:03.727Z,7.60
2023-04-20T03:50:31.844Z,7.60
2023-04-20T03:52:59.902Z,7.60
2023-04-20T03:55:27.857Z,7.60
2023-04-20T03:58:00.548Z,7.60
2023-04-20T04:00:29.967Z,7.66
2023-04-20T04:03:00.781Z,7.70
2023-04-20T04:05:29.464Z,7.80
2023-04-20T04:07:57.698Z,7.80
2023-04-20T04:10:25.729Z,7.86
2023-04-20T04:12:54.606Z,7.90
2023-04-20T04:15:23.389Z,7.90
2023-04-20T04:18:00.778Z,7.90
2023-04-20T04:20:29.060Z,7.90
2023-04-20T04:22:57.640Z,7.90
2023-04-20T04:25:39.704Z,7.96
2023-04-20T04:28:08.148Z,8.10
2023-04-20T04:30:40.876Z,8.20
2023-04-20T04:33:12.916Z,8.20
2023-04-20T04:35:43.893Z,8.22
2023-04-20T04:38:14.079Z,8.30
2023-04-20T04:40:45.926Z,8.32
2023-04-20T04:43:14.346Z,8.40
2023-04-20T04:45:49.977Z,8.60
2023-04-20T04:48:19.997Z,8.80
2023-04-20T04:50:47.934Z,9.00
2023-04-20T04:53:16.136Z,9.20
2023-04-20T04:55:43.916Z,9.38
2023-04-20T04:58:11.919Z,9.40
2023-04-20T05:00:40.512Z,9.50
2023-04-20T05:03:08.861Z,9.60
2023-04-20T05:05:36.922Z,9.70
2023-04-20T05:08:04.865Z,9.70
2023-04-20T05:10:32.860Z,9.74
2023-04-20T05:13:00.835Z,9.80
2023-04-20T05:15:28.860Z,9.82
2023-04-20T05:17:56.875Z,9.80
2023-04-20T05:20:24.814Z,9.72
2023-04-20T05:22:52.685Z,9.70
2023-04-20T05:25:20.668Z,9.80
2023-04-20T05:27:48.598Z,9.96
2023-04-20T05:48:52.971Z,10.70
2023-04-20T05:51:22.464Z,10.90
2023-04-20T05:53:50.388Z,11.08
2023-04-20T05:56:18.629Z,11.18
2023-04-20T05:58:46.748Z,11.30
2023-04-20T06:01:14.751Z,11.30
2023-04-20T06:03:43.163Z,11.40
2023-04-20T06:06:11.249Z,11.50
2023-04-20T06:08:39.107Z,11.60
2023-04-20T06:11:07.028Z,11.58
2023-04-20T06:13:34.994Z,11.60
2023-04-20T06:16:02.978Z,11.70
2023-04-20T06:18:30.989Z,11.70
2023-04-20T06:21:00.059Z,11.70
2023-04-20T06:23:28.030Z,11.90
2023-04-20T06:25:55.909Z,11.80
2023-04-20T06:28:23.892Z,11.80
2023-04-20T06:30:51.975Z,11.80
2023-04-20T06:33:20.260Z,11.80
2023-04-20T06:35:48.343Z,11.74
2023-04-20T06:38:16.402Z,11.70
2023-04-20T06:40:44.606Z,11.70
2023-04-20T06:43:12.610Z,11.80
2023-04-20T06:45:40.684Z,11.80
2023-04-20T06:48:20.158Z,11.90
2023-04-20T06:50:56.001Z,12.00
2023-04-20T06:53:24.033Z,12.24
2023-04-20T06:55:54.606Z,12.56
2023-04-20T06:58:22.496Z,13.20
2023-04-20T07:00:50.545Z,14.22
2023-04-20T07:03:19.469Z,15.52
2023-04-20T07:05:47.720Z,16.92
2023-04-20T07:08:18.306Z,18.24
2023-04-20T07:10:46.293Z,19.96
2023-04-20T07:13:14.207Z,20.78
2023-04-20T07:15:45.276Z,21.20
2023-04-20T07:18:13.296Z,21.20
2023-04-20T07:20:41.243Z,21.40
2023-04-20T07:23:09.237Z,21.14
2023-04-20T07:25:37.270Z,20.80
2023-04-20T07:28:05.318Z,20.90
2023-04-20T07:30:33.313Z,20.70
2023-04-20T07:33:01.356Z,20.20
2023-04-20T07:35:29.256Z,19.90
2023-04-20T07:37:57.275Z,19.70
2023-04-20T07:40:25.448Z,19.96
2023-04-20T07:42:53.599Z,20.48
2023-04-20T07:45:23.017Z,20.98
2023-04-20T07:47:52.471Z,21.36
2023-04-20T07:50:20.674Z,21.50
2023-04-20T07:52:48.567Z,21.50
2023-04-20T07:55:17.439Z,21.70
2023-04-20T07:57:45.341Z,22.46
2023-04-20T08:00:14.921Z,22.78
2023-04-20T08:02:42.993Z,22.84
2023-04-20T08:05:11.648Z,23.82
2023-04-20T08:07:40.034Z,24.78
2023-04-20T08:10:08.613Z,26.52
2023-04-20T08:12:36.546Z,28.06
2023-04-20T08:15:06.619Z,28.80
2023-04-20T08:17:34.592Z,29.00
2023-04-20T08:20:02.753Z,28.92
2023-04-20T08:22:30.811Z,28.72
2023-04-20T08:24:58.654Z,29.56
2023-04-20T08:27:29.825Z,29.74
2023-04-20T08:29:58.117Z,29.90
2023-04-20T08:32:27.091Z,30.52
2023-04-20T08:34:55.630Z,30.66
2023-04-20T08:37:23.706Z,31.34
2023-04-20T08:39:51.781Z,32.20
2023-04-20T08:42:19.779Z,32.96
2023-04-20T08:44:47.850Z,32.30
2023-04-20T08:47:15.804Z,32.04
2023-04-20T08:49:44.448Z,32.30
2023-04-20T08:52:13.796Z,33.18
2023-04-20T08:54:55.085Z,33.94
2023-04-20T08:57:25.232Z,34.54
2023-04-20T08:59:53.508Z,34.96
2023-04-20T09:02:22.989Z,35.50
2023-04-20T09:05:01.461Z,35.40
2023-04-20T09:07:29.426Z,35.50
2023-04-20T09:09:58.181Z,33.62
2023-04-20T09:12:26.174Z,31.62
2023-04-20T09:14:54.452Z,30.32
2023-04-20T09:17:33.319Z,29.46
2023-04-20T09:20:01.588Z,28.38
2023-04-20T09:22:31.554Z,28.62
2023-04-20T09:24:59.769Z,29.44
2023-04-20T09:27:27.851Z,30.82
2023-04-20T09:30:04.099Z,31.56
2023-04-20T09:32:33.274Z,32.20
2023-04-20T09:35:01.379Z,31.88
2023-04-20T09:37:29.336Z,31.60
2023-04-20T09:39:59.955Z,30.98
2023-04-20T09:42:28.508Z,31.40
2023-04-20T09:44:57.184Z,30.92
2023-04-20T09:47:26.871Z,30.32
2023-04-20T09:49:55.264Z,29.40
2023-04-20T09:52:23.582Z,29.20
2023-04-20T09:54:51.775Z,29.20
2023-04-20T09:57:19.887Z,29.04
2023-04-20T09:59:48.044Z,28.80
2023-04-20T10:02:16.025Z,28.74
2023-04-20T10:04:59.334Z,28.68
2023-04-20T10:07:30.123Z,28.40
2023-04-20T10:10:09.101Z,28.28
2023-04-20T10:12:50.022Z,27.96
2023-04-20T10:15:18.272Z,27.60
2023-04-20T10:17:46.464Z,27.60
2023-04-20T10:20:24.582Z,27.70
2023-04-20T10:22:52.946Z,27.70
2023-04-20T10:25:24.887Z,27.60
2023-04-20T10:28:01.843Z,27.40
2023-04-20T10:30:30.414Z,27.20
2023-04-20T10:33:14.313Z,26.92
2023-04-20T10:35:54.882Z,26.86
2023-04-20T10:38:34.477Z,26.78
2023-04-20T10:41:11.632Z,26.60
2023-04-20T10:43:43.263Z,26.60
2023-04-20T10:46:15.396Z,26.70
2023-04-20T10:49:01.409Z,26.70
2023-04-20T10:51:29.524Z,26.80
2023-04-20T10:54:01.625Z,26.42
2023-04-20T10:56:45.820Z,26.00
2023-04-20T10:59:18.589Z,25.50
2023-04-20T11:01:47.189Z,25.70
2023-04-20T11:04:18.357Z,26.00
2023-04-20T11:06:50.899Z,26.12
2023-04-20T11:09:24.867Z,26.30
2023-04-20T11:12:04.254Z,26.20
2023-04-20T11:14:36.051Z,26.00
2023-04-20T11:17:04.777Z,26.08
2023-04-20T11:19:36.103Z,26.10
2023-04-20T11:22:05.168Z,25.70
2023-04-20T11:24:37.566Z,25.00
2023-04-20T11:27:05.570Z,25.12
2023-04-20T11:29:35.346Z,25.66
2023-04-20T11:32:07.819Z,26.08
2023-04-20T11:34:37.699Z,26.10
2023-04-20T11:37:10.567Z,26.20
2023-04-20T11:39:39.038Z,26.10
2023-04-20T11:42:06.979Z,26.30
2023-04-20T11:44:37.036Z,26.50
2023-04-20T11:47:06.134Z,26.40
2023-04-20T11:49:34.237Z,26.40
2023-04-20T11:52:02.145Z,26.50
2023-04-20T11:54:32.466Z,26.62
2023-04-20T11:57:01.026Z,26.20
2023-04-20T11:59:28.967Z,26.00
2023-04-20T12:01:56.978Z,26.00
2023-04-20T12:04:25.379Z,25.90
2023-04-20T12:06:53.674Z,25.90
2023-04-20T12:09:21.677Z,25.70
2023-04-20T12:11:49.761Z,25.70
2023-04-20T12:14:18.012Z,25.50
2023-04-20T12:16:46.111Z,25.16
2023-04-20T12:19:14.190Z,24.94
2023-04-20T12:21:42.229Z,24.70
2023-04-20T12:24:10.255Z,24.52
2023-04-20T12:26:38.905Z,24.40
2023-04-20T12:29:07.657Z,24.30
2023-04-20T12:31:36.352Z,24.30
2023-04-20T12:34:04.443Z,24.10
2023-04-20T12:36:32.680Z,24.06
2023-04-20T12:39:01.904Z,24.00
2023-04-20T12:41:31.176Z,23.90
2023-04-20T12:43:59.202Z,23.90
2023-04-20T12:46:27.241Z,24.00
2023-04-20T12:48:56.267Z,24.00
2023-04-20T12:51:24.307Z,23.90
2023-04-20T12:53:52.281Z,23.80
2023-04-20T12:56:20.913Z,23.60
2023-04-20T12:58:48.799Z,23.50
2023-04-20T13:01:16.882Z,23.30
2023-04-20T13:03:45.216Z,23.30
2023-04-20T13:06:14.625Z,23.30
2023-04-20T13:08:42.749Z,23.30
2023-04-20T13:11:15.485Z,23.30
2023-04-20T13:13:43.770Z,23.30
2023-04-20T13:16:11.933Z,23.42
2023-04-20T13:18:39.978Z,23.40
2023-04-20T13:21:08.420Z,23.30
2023-04-20T13:23:38.216Z,23.20
2023-04-20T13:26:06.612Z,23.18
2023-04-20T13:28:34.911Z,22.90
2023-04-20T13:31:02.859Z,22.90
2023-04-20T13:33:30.828Z,22.90
2023-04-20T13:35:58.867Z,22.86
2023-04-20T13:38:26.751Z,22.70
2023-04-20T13:40:54.672Z,22.70
2023-04-20T13:43:23.103Z,22.70
2023-04-20T13:45:51.191Z,22.60
2023-04-20T13:48:19.164Z,22.40
2023-04-20T13:50:47.621Z,22.30
2023-04-20T13:53:15.693Z,22.40
2023-04-20T13:55:43.844Z,22.40
2023-04-20T13:58:11.784Z,22.30
2023-04-20T14:00:39.728Z,22.20
2023-04-20T14:03:10.617Z,22.10
2023-04-20T14:05:39.194Z,22.08
2023-04-20T14:08:07.479Z,22.12
2023-04-20T14:10:35.673Z,22.20
2023-04-20T14:13:03.569Z,22.26
2023-04-20T14:15:31.581Z,22.40
2023-04-20T14:18:00.797Z,22.40
2023-04-20T14:20:28.883Z,22.40
2023-04-20T14:22:56.719Z,22.42
2023-04-20T14:25:24.962Z,22.40
2023-04-20T14:27:53.177Z,22.20
2023-04-20T14:30:21.191Z,22.00
2023-04-20T14:32:59.309Z,21.90
2023-04-20T14:35:28.129Z,21.80
2023-04-20T14:37:56.238Z,21.90
2023-04-20T14:40:24.319Z,21.80
2023-04-20T14:42:52.348Z,21.66
2023-04-20T14:45:20.614Z,21.40
2023-04-20T14:47:54.268Z,21.20
2023-04-20T14:50:23.745Z,21.02
2023-04-20T14:52:53.971Z,20.90
2023-04-20T14:55:25.132Z,20.72
2023-04-20T14:57:57.404Z,20.70
2023-04-20T15:00:27.780Z,20.60
2023-04-20T15:02:59.901Z,20.60
2023-04-20T15:05:29.564Z,20.50
2023-04-20T15:07:57.731Z,20.30
2023-04-20T15:10:25.841Z,20.30
2023-04-20T15:12:53.890Z,20.30
2023-04-20T15:15:21.941Z,20.26
2023-04-20T15:17:50.557Z,20.28
2023-04-20T15:20:18.663Z,20.10
2023-04-20T15:22:46.722Z,20.00
2023-04-20T15:25:14.785Z,19.98
2023-04-20T15:27:42.802Z,19.90
2023-04-20T15:30:11.672Z,19.84
2023-04-20T15:32:40.393Z,19.80
2023-04-20T15:35:09.843Z,19.80
2023-04-20T15:37:38.366Z,19.78
2023-04-20T15:40:08.328Z,19.70
2023-04-20T15:42:36.196Z,19.70
2023-04-20T15:45:05.849Z,19.60
2023-04-20T15:47:33.856Z,19.60
2023-04-20T15:50:08.308Z,19.60
2023-04-20T15:52:36.825Z,19.60
2023-04-20T15:55:05.576Z,19.60
2023-04-20T15:57:33.543Z,19.56
2023-04-20T16:00:01.463Z,19.50
2023-04-20T16:02:29.568Z,19.50
2023-04-20T16:04:59.198Z,19.50
2023-04-20T16:07:27.178Z,19.50
2023-04-20T16:09:55.155Z,19.40
2023-04-20T16:12:23.174Z,19.30
2023-04-20T16:14:53.277Z,19.40
2023-04-20T16:17:22.004Z,19.40
2023-04-20T16:19:50.468Z,19.46
2023-04-20T16:22:18.411Z,19.50
2023-04-20T16:24:46.446Z,19.50
2023-04-20T16:27:14.431Z,19.50
2023-04-20T16:29:42.590Z,19.58
2023-04-20T16:32:11.994Z,19.60
2023-04-20T16:34:39.893Z,19.50
2023-04-20T16:37:09.175Z,19.50
2023-04-20T16:39:37.466Z,19.50
2023-04-20T16:42:05.629Z,19.50
2023-04-20T16:44:33.745Z,19.40
2023-04-20T16:47:02.288Z,19.30
2023-04-20T16:49:30.943Z,19.20
2023-04-20T16:51:58.961Z,19.10
2023-04-20T16:54:27.051Z,19.00
2023-04-20T16:56:55.536Z,19.00
2023-04-20T16:59:23.913Z,19.00
2023-04-20T17:01:51.941Z,18.80
2023-04-20T17:04:21.788Z,18.56
2023-04-20T17:06:50.050Z,18.30
2023-04-20T17:09:18.031Z,18.10
2023-04-20T17:11:46.013Z,18.00
2023-04-20T17:14:14.046Z,17.90
2023-04-20T17:16:42.006Z,17.78
2023-04-20T17:19:10.072Z,17.50
2023-04-20T17:21:40.231Z,17.14
2023-04-20T17:24:08.244Z,16.88
2023-04-20T17:26:36.516Z,16.60
2023-04-20T17:29:05.014Z,16.40
2023-04-20T17:31:34.647Z,16.30
2023-04-20T17:34:02.527Z,16.20
2023-04-20T17:36:30.632Z,16.20
2023-04-20T17:38:58.638Z,16.10
2023-04-20T17:41:26.788Z,16.02
2023-04-20T17:43:55.991Z,15.90
2023-04-20T17:46:24.649Z,15.88
2023-04-20T17:48:52.712Z,15.80
2023-04-20T17:51:21.458Z,15.80
2023-04-20T17:53:49.345Z,15.70
2023-04-20T17:56:17.987Z,15.60
2023-04-20T17:58:46.402Z,15.56
2023-04-20T18:01:15.715Z,15.50
2023-04-20T18:03:43.995Z,15.40
2023-04-20T18:06:14.772Z,15.40
2023-04-20T18:08:42.908Z,15.40
2023-04-20T18:11:11.481Z,15.40
2023-04-20T18:13:39.540Z,15.44
2023-04-20T18:16:08.510Z,15.40
2023-04-20T18:18:36.618Z,15.20
2023-04-20T18:21:04.678Z,15.20
2023-04-20T18:23:33.642Z,15.10
2023-04-20T18:26:01.939Z,15.00
2023-04-20T18:28:30.375Z,15.00
2023-04-20T18:30:59.003Z,15.00
2023-04-20T18:33:29.429Z,14.90
2023-04-20T18:35:57.530Z,14.90
2023-04-20T18:38:25.548Z,14.90
2023-04-20T18:40:53.561Z,15.00
2023-04-20T18:43:21.531Z,15.00
2023-04-20T18:45:49.521Z,15.00
2023-04-20T18:48:18.871Z,15.00
2023-04-20T18:50:48.232Z,15.00
2023-04-20T18:53:16.782Z,14.90
2023-04-20T18:55:44.948Z,14.90
2023-04-20T18:58:12.933Z,14.90
2023-04-20T19:00:41.215Z,14.90
2023-04-20T19:03:10.693Z,14.90
2023-04-20T19:05:41.758Z,14.90
2023-04-20T19:08:10.090Z,14.90
2023-04-20T19:10:38.314Z,14.80
2023-04-20T19:13:06.503Z,14.80
2023-04-20T19:15:34.818Z,14.70
2023-04-20T19:18:02.768Z,14.66
2023-04-20T19:20:30.895Z,14.60
2023-04-20T19:22:58.852Z,14.54
2023-04-20T19:25:26.821Z,14.50
2023-04-20T19:27:55.182Z,14.50
2023-04-20T19:30:24.157Z,14.60
2023-04-20T19:32:52.095Z,14.60
2023-04-20T19:35:20.203Z,14.60
2023-04-20T19:37:48.272Z,14.50
2023-04-20T19:40:16.466Z,14.50
2023-04-20T19:42:44.783Z,14.52
2023-04-20T19:45:12.798Z,14.70
2023-04-20T19:47:40.975Z,14.80
2023-04-20T19:50:09.752Z,14.70
2023-04-20T19:52:37.770Z,14.80
2023-04-20T19:55:06.928Z,14.80
2023-04-20T19:57:35.013Z,14.80
2023-04-20T20:00:04.540Z,14.86
2023-04-20T20:02:40.699Z,14.88
2023-04-20T20:05:09.147Z,14.80
2023-04-20T20:07:39.991Z,14.80
2023-04-20T20:10:08.641Z,14.80
2023-04-20T20:12:36.858Z,14.80
2023-04-20T20:15:05.011Z,14.70
2023-04-20T20:17:33.053Z,14.70
2023-04-20T20:20:01.949Z,14.60
2023-04-20T20:22:32.206Z,14.60
2023-04-20T20:25:01.296Z,14.50
2023-04-20T20:27:29.239Z,14.40
2023-04-20T20:29:57.248Z,14.30
2023-04-20T20:32:25.168Z,14.30
2023-04-20T20:34:53.428Z,14.20
2023-04-20T20:37:21.647Z,14.20
2023-04-20T20:39:49.521Z,14.10
2023-04-20T20:42:17.537Z,14.10
2023-04-20T20:44:45.512Z,14.00
2023-04-20T20:47:13.437Z,13.90
2023-04-20T20:49:41.260Z,13.80
2023-04-20T20:52:09.222Z,13.70
2023-04-20T20:54:37.180Z,13.60
2023-04-20T20:57:05.046Z,13.50
2023-04-20T20:59:33.065Z,13.42
2023-04-20T21:02:01.081Z,13.30
2023-04-20T21:04:30.222Z,13.28
2023-04-20T21:06:58.253Z,13.16
2023-04-20T21:09:26.198Z,13.10
2023-04-20T21:11:54.149Z,13.10
2023-04-20T21:14:22.191Z,13.10
2023-04-20T21:16:50.125Z,13.00
2023-04-20T21:19:18.344Z,12.92
2023-04-20T21:21:46.427Z,12.90
2023-04-20T21:24:14.434Z,12.80
2023-04-20T21:26:42.198Z,12.70
2023-04-20T21:29:10.238Z,12.70
2023-04-20T21:31:38.214Z,12.70
2023-04-20T21:34:06.256Z,12.70
2023-04-20T21:36:34.228Z,12.70
2023-04-20T21:39:02.249Z,12.76
2023-04-20T21:41:32.241Z,12.74
2023-04-20T21:44:01.382Z,12.70
2023-04-20T21:46:29.585Z,12.56
2023-04-20T21:48:57.774Z,12.22
2023-04-20T21:51:25.970Z,12.10
2023-04-20T21:53:53.969Z,12.00
2023-04-20T21:56:21.804Z,11.84
2023-04-20T21:58:49.823Z,11.74
2023-04-20T22:01:17.927Z,11.60
2023-04-20T22:03:47.714Z,11.50
2023-04-20T22:06:15.830Z,11.50
2023-04-20T22:08:43.840Z,11.40
2023-04-20T22:11:11.731Z,11.30
2023-04-20T22:13:39.547Z,11.30
2023-04-20T22:16:07.715Z,11.30
2023-04-20T22:18:35.716Z,11.40
2023-04-20T22:21:03.776Z,11.50
2023-04-20T22:23:31.630Z,11.50
2023-04-20T22:25:59.667Z,11.50
2023-04-20T22:28:27.522Z,11.60
2023-04-20T22:30:55.871Z,11.60
2023-04-20T22:33:23.940Z,11.56
2023-04-20T22:35:52.724Z,11.58
2023-04-20T22:38:20.806Z,11.50
2023-04-20T22:40:48.759Z,11.50
2023-04-20T22:43:16.698Z,11.42
2023-04-20T22:45:44.579Z,11.40
2023-04-20T22:48:12.628Z,11.40
2023-04-20T22:50:40.608Z,11.40
2023-04-20T22:53:08.536Z,11.20
2023-04-20T22:55:36.482Z,11.10
2023-04-20T22:58:04.347Z,11.00
2023-04-20T23:00:32.366Z,11.08
2023-04-20T23:03:00.456Z,11.10
2023-04-20T23:05:29.047Z,11.10
2023-04-20T23:07:57.079Z,11.10
2023-04-20T23:10:28.842Z,11.10
2023-04-20T23:12:56.960Z,11.10
2023-04-20T23:15:24.968Z,11.10
2023-04-20T23:17:53.040Z,11.20
2023-04-20T23:20:21.539Z,11.20
2023-04-20T23:22:49.535Z,11.20
2023-04-20T23:25:17.625Z,11.10
2023-04-20T23:27:45.698Z,11.10
2023-04-20T23:30:13.920Z,10.90
2023-04-20T23:32:43.872Z,10.70
2023-04-20T23:35:12.617Z,10.60
2023-04-20T23:37:40.592Z,10.58
2023-04-20T23:40:10.158Z,10.60
2023-04-20T23:42:38.119Z,10.60
2023-04-20T23:45:06.882Z,10.60
2023-04-20T23:47:35.050Z,10.60
2023-04-20T23:50:03.272Z,10.60
2023-04-20T23:52:31.346Z,10.60
2023-04-20T23:54:59.258Z,10.70
2023-04-20T23:57:27.258Z,10.70
2023-04-20T23:59:55.297Z,10.70
